Time;durP1;ratioP1;P1;durP2;ratioP2;P2;SDS_P1;SDS_P2;PMS_P1;PMS_P2;Temp;Humidity;BMP_temperature;BMP_pressure;BME280_temperature;BME280_humidity;BME280_pressure;Samples;Min_cycle;Max_cycle;Signal;HPM_P1;HPM_P2
2023/10/04 00:01:11;;;;;;;1.98;0.22;;;14.40;99.90;;;;;;5012742;28;20498;-78
2023/10/04 00:03:38;;;;;;;0.00;0.00;;;14.40;99.90;;;;;;5011335;28;20030;-78
2023/10/04 00:06:04;;;;;;;1.75;0.10;;;14.30;99.90;;;;;;5027851;28;20029;-78
2023/10/04 00:08:29;;;;;;;0.15;0.15;;;14.30;99.90;;;;;;5013923;28;20034;-78
2023/10/04 00:10:55;;;;;;;0.98;0.98;;;14.50;99.90;;;;;;5016364;28;20076;-78
2023/10/04 00:13:22;;;;;;;0.10;0.10;;;14.50;99.90;;;;;;5031594;28;20486;-78
2023/10/04 00:15:47;;;;;;;0.88;0.30;;;14.30;99.90;;;;;;5016105;28;20049;-78
2023/10/04 00:18:15;;;;;;;0.35;0.35;;;14.40;99.90;;;;;;5014806;28;20037;-78
2023/10/04 00:20:41;;;;;;;0.03;0.03;;;14.20;99.90;;;;;;5015976;28;20444;-78
2023/10/04 00:23:08;;;;;;;1.30;0.55;;;14.20;99.90;;;;;;5015928;28;20148;-78
2023/10/04 00:25:34;;;;;;;8.70;2.38;;;14.30;99.90;;;;;;5015916;28;20048;-78
2023/10/04 00:28:02;;;;;;;10.45;2.35;;;14.20;99.90;;;;;;5014903;28;20026;-78
2023/10/04 00:30:29;;;;;;;0.00;0.00;;;14.10;99.90;;;;;;5030587;28;20033;-78
2023/10/04 00:32:57;;;;;;;0.57;0.25;;;14.10;99.90;;;;;;5014849;28;20037;-78
2023/10/04 00:35:25;;;;;;;3.78;0.47;;;14.30;99.90;;;;;;5015417;28;20487;-78
2023/10/04 00:38:00;;;;;;;1.25;0.70;;;14.30;99.90;;;;;;5015592;28;20030;-78
2023/10/04 00:40:31;;;;;;;0.70;0.70;;;14.20;99.90;;;;;;5014347;28;20022;-78
2023/10/04 00:42:59;;;;;;;0.13;0.13;;;14.10;99.90;;;;;;5014577;28;20030;-79
2023/10/04 00:45:25;;;;;;;0.30;0.30;;;14.20;99.90;;;;;;5014433;28;20034;-78
2023/10/04 00:47:56;;;;;;;0.00;0.00;;;14.30;99.90;;;;;;5015734;28;20033;-78
2023/10/04 00:50:26;;;;;;;0.00;0.00;;;14.20;99.90;;;;;;5015261;28;20382;-78
2023/10/04 00:53:14;;;;;;;1.45;0.47;;;14.30;99.90;;;;;;5030835;28;20030;-78
2023/10/04 00:55:43;;;;;;;0.00;0.00;;;14.20;99.90;;;;;;4999325;28;20018;-78
2023/10/04 00:58:17;;;;;;;0.10;0.10;;;14.10;99.90;;;;;;5010240;28;20037;-78
2023/10/04 01:00:43;;;;;;;1.10;0.57;;;14.10;99.90;;;;;;5015271;28;20080;-78
2023/10/04 01:03:09;;;;;;;0.13;0.13;;;14.30;99.90;;;;;;5015321;28;20026;-78
2023/10/04 01:05:45;;;;;;;0.17;0.17;;;14.30;99.90;;;;;;5014999;28;20363;-78
2023/10/04 01:08:16;;;;;;;0.93;0.43;;;14.30;99.90;;;;;;5015188;28;20091;-78
2023/10/04 01:10:46;;;;;;;0.32;0.32;;;14.10;99.90;;;;;;5030378;28;20030;-78
2023/10/04 01:13:16;;;;;;;1.55;0.22;;;14.20;99.90;;;;;;5013724;28;20038;-78
2023/10/04 01:15:42;;;;;;;2.20;0.55;;;14.10;99.90;;;;;;5030299;28;20030;-77
2023/10/04 01:18:11;;;;;;;0.10;0.10;;;14.10;99.90;;;;;;5015145;28;20105;-78
2023/10/04 01:20:40;;;;;;;0.00;0.00;;;14.20;99.90;;;;;;5012716;28;20037;-77
2023/10/04 01:23:10;;;;;;;13.75;0.57;;;14.30;99.90;;;;;;5014938;28;20056;-78
2023/10/04 01:25:39;;;;;;;0.10;0.10;;;14.40;99.90;;;;;;5030031;28;20052;-77
2023/10/04 01:28:11;;;;;;;5.35;0.40;;;14.50;99.90;;;;;;5014900;28;20040;-78
2023/10/04 01:30:39;;;;;;;0.28;0.28;;;14.20;99.90;;;;;;5014604;28;20486;-78
2023/10/04 01:33:07;;;;;;;0.45;0.20;;;14.30;99.90;;;;;;5014823;28;20026;-78
2023/10/04 01:35:33;;;;;;;0.70;0.32;;;14.30;99.90;;;;;;5014386;28;20113;-77
2023/10/04 01:37:59;;;;;;;3.70;1.30;;;14.20;99.90;;;;;;5014516;28;20517;-77
2023/10/04 01:40:31;;;;;;;0.38;0.38;;;14.20;99.90;;;;;;5014600;28;20462;-78
2023/10/04 01:42:57;;;;;;;0.10;0.10;;;14.20;99.90;;;;;;5013412;28;20482;-78
2023/10/04 01:45:23;;;;;;;0.10;0.10;;;14.10;99.90;;;;;;5014648;28;20048;-77
2023/10/04 01:47:50;;;;;;;0.20;0.20;;;14.10;99.90;;;;;;5014049;28;20064;-78
2023/10/04 01:50:17;;;;;;;1.05;0.88;;;14.10;99.90;;;;;;5013187;28;20030;-78
2023/10/04 01:52:45;;;;;;;1.10;0.50;;;14.20;99.90;;;;;;5013151;28;20065;-77
2023/10/04 01:55:12;;;;;;;0.10;0.10;;;14.20;99.90;;;;;;5014247;28;20033;-78
2023/10/04 01:57:40;;;;;;;0.10;0.10;;;14.40;99.90;;;;;;5014280;28;20030;-77
2023/10/04 02:00:11;;;;;;;9.52;1.48;;;14.20;99.90;;;;;;5029405;28;20034;-77
2023/10/04 02:02:40;;;;;;;0.15;0.15;;;14.10;99.90;;;;;;5013744;28;20026;-77
2023/10/04 02:05:09;;;;;;;9.27;1.60;;;14.00;99.90;;;;;;5029484;28;20033;-77
2023/10/04 02:07:39;;;;;;;5.82;1.35;;;14.00;99.90;;;;;;5014230;28;20422;-78
2023/10/04 02:10:09;;;;;;;7.22;0.73;;;14.00;99.90;;;;;;5012913;28;20040;-77
2023/10/04 02:12:35;;;;;;;4.13;0.88;;;14.10;99.90;;;;;;5012780;28;20459;-77
2023/10/04 02:15:01;;;;;;;0.10;0.10;;;14.10;99.90;;;;;;5029295;28;20474;-78
2023/10/04 02:17:27;;;;;;;1.00;0.57;;;14.20;99.90;;;;;;5013566;28;20022;-78
2023/10/04 02:19:55;;;;;;;0.10;0.10;;;14.20;99.90;;;;;;5029503;28;20026;-78
2023/10/04 02:22:22;;;;;;;0.10;0.10;;;14.10;99.90;;;;;;5013703;28;20105;-78
2023/10/04 02:24:49;;;;;;;0.00;0.00;;;14.10;99.90;;;;;;5014108;28;20486;-78
2023/10/04 02:27:17;;;;;;;0.10;0.10;;;14.10;99.90;;;;;;5028826;28;20041;-79
2023/10/04 02:29:47;;;;;;;0.47;0.43;;;14.10;99.90;;;;;;5013737;28;20041;-79
2023/10/04 02:32:13;;;;;;;0.30;0.30;;;13.90;99.90;;;;;;5027556;28;20034;-78
2023/10/04 02:34:41;;;;;;;0.50;0.40;;;14.10;99.90;;;;;;5028772;28;20057;-78
2023/10/04 02:37:07;;;;;;;0.20;0.20;;;14.10;99.90;;;;;;5012346;28;20017;-78
2023/10/04 02:39:36;;;;;;;1.38;0.85;;;14.00;99.90;;;;;;5012139;28;20103;-78
2023/10/04 02:42:09;;;;;;;0.10;0.10;;;14.00;99.90;;;;;;5012310;28;20022;-78
2023/10/04 02:44:38;;;;;;;3.90;0.32;;;14.00;99.90;;;;;;5012190;28;20037;-78
2023/10/04 02:47:08;;;;;;;8.88;1.45;;;13.90;99.90;;;;;;5013313;28;20018;-78
2023/10/04 02:49:37;;;;;;;0.98;0.95;;;14.00;99.90;;;;;;5011949;28;20038;-79
2023/10/04 02:52:12;;;;;;;0.43;0.43;;;14.10;99.90;;;;;;5012251;28;20018;-79
2023/10/04 02:54:38;;;;;;;0.47;0.47;;;14.00;99.90;;;;;;5005309;28;20552;-78
2023/10/04 02:57:05;;;;;;;0.10;0.10;;;14.10;99.90;;;;;;5010989;28;20394;-78
2023/10/04 02:59:32;;;;;;;0.00;0.00;;;14.20;99.90;;;;;;5010962;28;20029;-79
2023/10/04 03:01:59;;;;;;;0.00;0.00;;;14.10;99.90;;;;;;5011619;28;20022;-79
2023/10/04 03:04:25;;;;;;;2.67;1.90;;;14.20;99.90;;;;;;5011958;28;20037;-79
2023/10/04 03:06:52;;;;;;;0.00;0.00;;;14.00;99.90;;;;;;5013232;28;20026;-79
2023/10/04 03:09:18;;;;;;;0.05;0.05;;;14.00;99.90;;;;;;5011645;28;20124;-78
2023/10/04 03:11:44;;;;;;;1.75;1.65;;;14.00;99.90;;;;;;5028249;28;20018;-78
2023/10/04 03:14:12;;;;;;;0.90;0.60;;;14.10;99.90;;;;;;5011823;28;20022;-79
2023/10/04 03:16:42;;;;;;;0.30;0.30;;;13.80;99.90;;;;;;5027918;28;20374;-79
2023/10/04 03:19:12;;;;;;;0.10;0.10;;;13.90;99.90;;;;;;5011782;28;20474;-79
2023/10/04 03:21:44;;;;;;;0.05;0.05;;;14.10;99.90;;;;;;5011826;28;20100;-78
2023/10/04 03:24:10;;;;;;;0.10;0.10;;;14.00;99.90;;;;;;5028164;28;20025;-79
2023/10/04 03:26:38;;;;;;;8.27;0.95;;;13.70;99.90;;;;;;5028052;28;20029;-78
2023/10/04 03:29:06;;;;;;;0.10;0.10;;;13.50;99.90;;;;;;5028191;28;20116;-79
2023/10/04 03:31:33;;;;;;;0.00;0.00;;;13.40;99.90;;;;;;5011302;28;20390;-79
2023/10/04 03:34:00;;;;;;;0.10;0.10;;;13.40;99.90;;;;;;5027920;28;20032;-78
2023/10/04 03:36:29;;;;;;;0.10;0.10;;;13.50;99.90;;;;;;5012826;28;20475;-78
2023/10/04 03:39:01;;;;;;;3.22;0.95;;;13.50;99.90;;;;;;5011317;28;20129;-78
2023/10/04 03:41:28;;;;;;;22.73;0.80;;;13.60;99.90;;;;;;5011406;28;20033;-78
2023/10/04 03:44:00;;;;;;;0.10;0.10;;;13.60;99.90;;;;;;5014243;28;20030;-78
2023/10/04 03:46:26;;;;;;;5.20;1.50;;;13.40;99.90;;;;;;5015703;28;20277;-77
2023/10/04 03:48:58;;;;;;;0.40;0.40;;;13.40;99.90;;;;;;5015426;28;20037;-78
2023/10/04 03:51:24;;;;;;;0.52;0.52;;;13.40;99.90;;;;;;5016555;28;20497;-78
2023/10/04 03:53:53;;;;;;;0.15;0.15;;;13.40;99.90;;;;;;5015335;28;20463;-78
2023/10/04 03:56:22;;;;;;;0.15;0.15;;;13.40;99.90;;;;;;5015298;28;20022;-78
2023/10/04 03:58:49;;;;;;;8.68;0.35;;;13.40;99.90;;;;;;5031581;28;20490;-77
2023/10/04 04:01:15;;;;;;;3.63;0.90;;;13.40;99.90;;;;;;5016449;28;20104;-77
2023/10/04 04:03:40;;;;;;;0.45;0.45;;;13.20;99.90;;;;;;5031693;28;20029;-77
2023/10/04 04:06:08;;;;;;;0.00;0.00;;;13.30;99.90;;;;;;5015124;28;20095;-78
2023/10/04 04:08:34;;;;;;;1.83;1.00;;;13.40;99.90;;;;;;5031269;28;20080;-79
2023/10/04 04:11:01;;;;;;;0.30;0.30;;;13.20;99.90;;;;;;5016365;28;20030;-78
2023/10/04 04:13:27;;;;;;;2.72;1.48;;;13.10;99.90;;;;;;5014955;28;20021;-78
2023/10/04 04:15:54;;;;;;;0.30;0.30;;;13.10;99.90;;;;;;5015986;28;20368;-78
2023/10/04 04:18:20;;;;;;;0.70;0.70;;;13.30;99.90;;;;;;5031280;28;20474;-78
2023/10/04 04:20:51;;;;;;;9.57;0.88;;;13.30;99.90;;;;;;5014735;28;20500;-78
2023/10/04 04:23:18;;;;;;;0.38;0.38;;;13.20;99.90;;;;;;5031323;28;20034;-78
2023/10/04 04:25:47;;;;;;;1.55;0.85;;;13.10;99.90;;;;;;5014704;28;20121;-77
2023/10/04 04:28:17;;;;;;;4.80;1.00;;;12.90;99.90;;;;;;5014431;28;20479;-78
2023/10/04 04:30:43;;;;;;;1.55;0.65;;;12.80;99.90;;;;;;5014388;28;20439;-77
2023/10/04 04:33:10;;;;;;;7.07;2.75;;;12.70;99.90;;;;;;5031228;28;20072;-78
2023/10/04 04:35:47;;;;;;;0.00;0.00;;;12.70;99.90;;;;;;5014502;28;20414;-78
2023/10/04 04:38:17;;;;;;;0.30;0.30;;;12.70;99.90;;;;;;5014548;28;20431;-78
2023/10/04 04:40:56;;;;;;;0.20;0.20;;;12.70;99.90;;;;;;5030689;28;20045;-78
2023/10/04 04:45:57;;;;;;;3.20;0.65;;;12.80;99.90;;;;;;5030636;28;20018;-78
2023/10/04 04:48:29;;;;;;;2.67;1.00;;;12.70;99.90;;;;;;5014282;28;20395;-78
2023/10/04 04:51:11;;;;;;;0.68;0.52;;;12.80;99.90;;;;;;5030549;28;20033;-78
2023/10/04 04:53:51;;;;;;;6.57;2.22;;;12.70;99.90;;;;;;5013838;28;20432;-78
2023/10/04 04:56:23;;;;;;;4.18;1.30;;;12.70;99.90;;;;;;5013511;28;20030;-78
2023/10/04 04:58:56;;;;;;;0.30;0.30;;;12.70;99.90;;;;;;5014154;28;20029;-78
2023/10/04 05:01:23;;;;;;;5.40;1.17;;;12.70;99.90;;;;;;5030274;28;20030;-78
2023/10/04 05:03:51;;;;;;;2.55;0.73;;;12.70;99.90;;;;;;5013861;28;20049;-78
2023/10/04 05:06:22;;;;;;;0.88;0.63;;;12.60;99.90;;;;;;5013809;28;20109;-77
2023/10/04 05:08:54;;;;;;;1.55;0.45;;;12.60;99.90;;;;;;5015012;28;20030;-78
2023/10/04 05:11:21;;;;;;;0.73;0.52;;;12.70;99.90;;;;;;5014739;28;20070;-78
2023/10/04 05:13:46;;;;;;;5.68;1.13;;;12.70;99.90;;;;;;5014961;28;20030;-78
2023/10/04 05:16:12;;;;;;;6.13;0.75;;;12.70;99.90;;;;;;5030492;28;20033;-77
2023/10/04 05:18:39;;;;;;;0.20;0.20;;;12.60;99.90;;;;;;5015068;28;20113;-78
2023/10/04 05:21:05;;;;;;;2.70;2.47;;;12.70;99.90;;;;;;5015035;28;20374;-78
2023/10/04 05:23:31;;;;;;;0.05;0.05;;;12.70;99.90;;;;;;5014939;28;20530;-78
2023/10/04 05:25:58;;;;;;;1.02;0.73;;;12.80;99.90;;;;;;5014564;28;20105;-79
2023/10/04 05:28:24;;;;;;;0.52;0.45;;;12.70;99.90;;;;;;5013442;28;20478;-79
2023/10/04 05:30:51;;;;;;;2.13;0.28;;;12.80;99.90;;;;;;5014530;28;20033;-78
2023/10/04 05:33:22;;;;;;;0.68;0.68;;;12.70;99.90;;;;;;5029902;28;20398;-78
2023/10/04 05:35:53;;;;;;;0.80;0.80;;;12.60;99.90;;;;;;5013455;28;20034;-78
2023/10/04 05:38:20;;;;;;;0.30;0.30;;;12.50;99.90;;;;;;5014708;28;20036;-78
2023/10/04 05:40:49;;;;;;;0.65;0.57;;;12.60;99.90;;;;;;5014221;28;20030;-79
2023/10/04 05:43:16;;;;;;;3.22;1.13;;;12.70;99.90;;;;;;5013384;28;20197;-78
2023/10/04 05:45:43;;;;;;;0.30;0.30;;;12.50;99.90;;;;;;5013039;28;20048;-78
2023/10/04 05:48:10;;;;;;;14.95;2.35;;;12.60;99.90;;;;;;5013921;28;20057;-79
2023/10/04 05:50:36;;;;;;;2.30;1.13;;;12.60;99.90;;;;;;5012801;28;20042;-78
2023/10/04 05:53:09;;;;;;;0.45;0.38;;;12.60;99.90;;;;;;5014525;28;20049;-79
2023/10/04 05:55:36;;;;;;;0.05;0.05;;;12.60;99.90;;;;;;5014251;28;20042;-78
2023/10/04 05:58:12;;;;;;;2.15;0.82;;;12.80;99.90;;;;;;4996885;28;20022;-78
2023/10/04 06:00:41;;;;;;;0.22;0.20;;;12.60;99.90;;;;;;5012993;28;20073;-78
2023/10/04 06:03:12;;;;;;;1.30;1.20;;;12.60;99.90;;;;;;5029150;28;20026;-78
2023/10/04 06:05:46;;;;;;;0.75;0.25;;;12.60;99.90;;;;;;5014085;28;20375;-78
2023/10/04 06:08:18;;;;;;;1.08;0.50;;;12.50;99.90;;;;;;5013859;28;20044;-78
2023/10/04 06:10:48;;;;;;;2.47;1.27;;;12.50;99.90;;;;;;5012673;28;20050;-78
2023/10/04 06:13:17;;;;;;;0.88;0.88;;;12.60;99.90;;;;;;5013758;28;20363;-78
2023/10/04 06:15:46;;;;;;;0.57;0.57;;;12.50;99.90;;;;;;5014067;28;20014;-78
2023/10/04 06:18:12;;;;;;;0.05;0.05;;;12.60;99.90;;;;;;5013805;28;20022;-78
2023/10/04 06:20:40;;;;;;;9.75;0.82;;;12.60;99.90;;;;;;5013911;28;20097;-78
2023/10/04 06:23:17;;;;;;;1.63;1.13;;;12.60;99.90;;;;;;5013834;28;20525;-78
2023/10/04 06:25:45;;;;;;;0.10;0.10;;;12.60;99.90;;;;;;5014029;28;20021;-79
2023/10/04 06:28:12;;;;;;;9.73;1.20;;;12.70;99.90;;;;;;5013662;28;20064;-78
2023/10/04 06:30:38;;;;;;;8.10;1.30;;;12.60;99.90;;;;;;5013546;28;20041;-78
2023/10/04 06:33:06;;;;;;;2.83;0.82;;;12.80;99.90;;;;;;5013527;28;20037;-78
2023/10/04 06:35:32;;;;;;;1.08;0.95;;;12.70;99.90;;;;;;5013690;28;20441;-78
2023/10/04 06:38:00;;;;;;;0.40;0.40;;;12.70;99.90;;;;;;5013426;28;20033;-78
2023/10/04 06:40:30;;;;;;;2.95;0.47;;;12.60;99.90;;;;;;5012251;28;20036;-79
2023/10/04 06:42:55;;;;;;;0.47;0.47;;;12.90;99.90;;;;;;4995978;28;20057;-78
2023/10/04 06:45:26;;;;;;;9.23;2.10;;;12.80;99.90;;;;;;5029027;28;20034;-79
2023/10/04 06:47:58;;;;;;;4.43;0.38;;;12.80;99.90;;;;;;5013361;28;20025;-78
2023/10/04 06:50:28;;;;;;;6.15;1.10;;;12.90;99.90;;;;;;5013531;28;20038;-78
2023/10/04 06:52:59;;;;;;;0.22;0.22;;;13.00;99.90;;;;;;5011607;28;20041;-78
2023/10/04 06:55:26;;;;;;;0.57;0.40;;;12.90;99.90;;;;;;5013626;28;20083;-77
2023/10/04 06:57:53;;;;;;;2.65;1.73;;;12.90;99.90;;;;;;5013066;28;20037;-78
2023/10/04 07:00:20;;;;;;;0.15;0.15;;;13.00;99.90;;;;;;5012288;28;20125;-78
2023/10/04 07:02:53;;;;;;;0.28;0.28;;;13.00;99.90;;;;;;5013200;28;20030;-78
2023/10/04 07:05:32;;;;;;;0.10;0.10;;;13.20;99.90;;;;;;4999722;28;20030;-78
2023/10/04 07:07:58;;;;;;;6.95;2.20;;;13.20;99.90;;;;;;5012810;28;20033;-78
2023/10/04 07:10:28;;;;;;;3.33;1.40;;;13.20;99.90;;;;;;5028677;28;20038;-77
2023/10/04 07:12:56;;;;;;;15.35;1.35;;;13.30;99.90;;;;;;5013227;28;20030;-78
2023/10/04 07:15:44;;;;;;;6.93;0.95;;;13.00;99.90;;;;;;5013037;28;20026;-78
2023/10/04 07:18:11;;;;;;;2.38;0.30;;;13.10;99.90;;;;;;5011954;28;20124;-78
2023/10/04 07:20:38;;;;;;;0.10;0.10;;;13.00;99.90;;;;;;5013050;28;20037;-77
2023/10/04 07:23:07;;;;;;;0.20;0.20;;;13.10;99.90;;;;;;5012913;28;20040;-78
2023/10/04 07:25:37;;;;;;;9.27;1.55;;;13.30;99.90;;;;;;5012841;28;20071;-78
2023/10/04 07:28:05;;;;;;;0.93;0.77;;;13.30;99.90;;;;;;5012883;28;20066;-78
2023/10/04 07:30:33;;;;;;;8.65;0.68;;;13.30;99.90;;;;;;5012624;28;20064;-78
2023/10/04 07:32:59;;;;;;;9.90;2.13;;;13.30;99.90;;;;;;5013048;28;20022;-78
2023/10/04 07:35:27;;;;;;;1.35;0.75;;;13.20;99.90;;;;;;5011555;28;20030;-78
2023/10/04 07:37:55;;;;;;;0.00;0.00;;;13.40;99.90;;;;;;5012628;28;20026;-78
2023/10/04 07:40:25;;;;;;;1.35;0.55;;;13.40;99.90;;;;;;5013004;28;20370;-78
2023/10/04 07:42:53;;;;;;;19.75;2.38;;;13.60;99.90;;;;;;5012789;28;20523;-76
2023/10/04 07:45:21;;;;;;;6.78;1.85;;;13.50;99.90;;;;;;5012851;28;20050;-77
2023/10/04 07:47:47;;;;;;;11.18;1.83;;;13.60;99.90;;;;;;5012803;28;20026;-77
2023/10/04 07:50:15;;;;;;;7.63;1.70;;;13.80;99.90;;;;;;5011371;28;20064;-76
2023/10/04 07:52:44;;;;;;;3.45;1.05;;;13.80;99.90;;;;;;5012296;28;20364;-77
2023/10/04 07:55:20;;;;;;;12.10;0.98;;;13.70;99.90;;;;;;5012639;28;20116;-77
2023/10/04 07:57:50;;;;;;;7.45;1.52;;;14.00;99.90;;;;;;5012538;28;20024;-77
2023/10/04 08:00:17;;;;;;;0.90;0.22;;;14.10;99.90;;;;;;5012533;28;20026;-77
2023/10/04 08:02:49;;;;;;;1.55;1.00;;;14.10;99.90;;;;;;5012660;28;20475;-78
2023/10/04 08:05:19;;;;;;;8.55;1.98;;;14.40;99.90;;;;;;5012207;28;20030;-77
2023/10/04 08:07:53;;;;;;;0.20;0.20;;;14.30;99.90;;;;;;5011396;28;20034;-77
2023/10/04 08:10:25;;;;;;;1.60;0.80;;;14.30;99.90;;;;;;5011256;28;20038;-77
2023/10/04 08:12:59;;;;;;;;;;;14.30;99.90;;;;;;5013023;28;20038;-77
2023/10/04 08:15:27;;;;;;;0.47;0.47;;;14.30;99.90;;;;;;5012469;28;20370;-77
2023/10/04 08:17:54;;;;;;;0.10;0.10;;;14.50;99.90;;;;;;5012443;28;20026;-77
2023/10/04 08:20:24;;;;;;;0.40;0.40;;;14.70;99.90;;;;;;5012008;28;20113;-77
2023/10/04 08:22:50;;;;;;;3.58;0.30;;;14.50;99.90;;;;;;5012444;28;20026;-77
2023/10/04 08:25:21;;;;;;;0.20;0.20;;;14.60;99.90;;;;;;5012295;28;20053;-77
2023/10/04 08:27:48;;;;;;;17.42;1.33;;;14.70;99.90;;;;;;5012314;28;20501;-77
2023/10/04 08:30:15;;;;;;;6.53;0.88;;;14.80;99.90;;;;;;5013938;28;20041;-77
2023/10/04 08:32:42;;;;;;;5.35;1.27;;;14.70;99.90;;;;;;5015914;28;20030;-77
2023/10/04 08:35:21;;;;;;;0.63;0.63;;;14.80;99.90;;;;;;5015542;28;20478;-77
2023/10/04 08:37:53;;;;;;;3.63;0.80;;;14.90;99.90;;;;;;5015939;28;20041;-77
2023/10/04 08:40:26;;;;;;;4.95;1.33;;;15.10;99.90;;;;;;5015617;28;20072;-77
2023/10/04 08:42:52;;;;;;;11.18;1.83;;;15.00;99.90;;;;;;5015691;28;20034;-78
2023/10/04 08:45:19;;;;;;;3.95;1.20;;;14.80;99.90;;;;;;5015710;28;20589;-77
2023/10/04 08:47:57;;;;;;;5.70;1.15;;;15.00;99.90;;;;;;5030904;28;20061;-77
2023/10/04 08:51:08;;;;;;;22.45;1.92;;;15.20;99.90;;;;;;5015476;28;20046;-77
2023/10/04 08:53:56;;;;;;;0.90;0.73;;;15.40;99.90;;;;;;4985940;28;20042;-78
2023/10/04 08:56:24;;;;;;;1.85;1.17;;;15.50;99.90;;;;;;5017433;28;20033;-77
2023/10/04 08:58:51;;;;;;;1.20;1.02;;;15.40;99.90;;;;;;5015508;28;20485;-76
2023/10/04 09:01:19;;;;;;;1.95;1.42;;;15.30;99.90;;;;;;5013973;28;20037;-76
2023/10/04 09:03:47;;;;;;;0.95;0.85;;;15.30;99.90;;;;;;5013860;28;20018;-77
2023/10/04 09:06:17;;;;;;;1.27;0.70;;;15.30;99.90;;;;;;5015286;28;20056;-76
2023/10/04 09:08:45;;;;;;;0.35;0.35;;;15.60;99.90;;;;;;5001592;28;20049;-77
2023/10/04 09:11:12;;;;;;;5.07;1.73;;;15.70;99.90;;;;;;5015075;28;20042;-76
2023/10/04 09:13:42;;;;;;;3.28;1.30;;;15.80;99.90;;;;;;5015219;28;20034;-77
2023/10/04 09:16:28;;;;;;;10.13;1.90;;;15.80;99.90;;;;;;5015188;28;20029;-77
2023/10/04 09:19:19;;;;;;;2.10;1.90;;;15.90;99.90;;;;;;5014918;28;20143;-77
2023/10/04 09:21:45;;;;;;;0.43;0.40;;;16.20;99.90;;;;;;5014713;28;20068;-78
2023/10/04 09:24:16;;;;;;;3.03;0.95;;;16.40;99.90;;;;;;5014984;28;20018;-78
2023/10/04 09:26:54;;;;;;;0.30;0.30;;;16.10;99.90;;;;;;5014907;28;20030;-77
2023/10/04 09:29:36;;;;;;;2.72;1.05;;;16.10;99.90;;;;;;5014959;28;20494;-77
2023/10/04 09:32:03;;;;;;;1.25;0.65;;;16.10;99.90;;;;;;5029498;28;20041;-77
2023/10/04 09:34:30;;;;;;;1.65;0.20;;;16.50;99.90;;;;;;5015094;28;20414;-77
2023/10/04 09:36:56;;;;;;;3.83;0.85;;;16.60;99.90;;;;;;5014528;28;20041;-77
2023/10/04 09:39:26;;;;;;;8.68;0.98;;;16.70;99.90;;;;;;5014802;28;20379;-77
2023/10/04 09:41:54;;;;;;;13.30;2.35;;;16.70;99.90;;;;;;5012623;28;20037;-77
2023/10/04 09:44:30;;;;;;;10.45;1.27;;;16.50;99.90;;;;;;5014543;28;20041;-77
2023/10/04 09:46:59;;;;;;;0.00;0.00;;;16.70;99.90;;;;;;5014244;28;20045;-78
2023/10/04 09:49:31;;;;;;;14.20;1.05;;;16.90;99.90;;;;;;5014536;28;20034;-78
2023/10/04 09:52:00;;;;;;;8.38;1.25;;;17.00;99.90;;;;;;5014253;28;20026;-77
2023/10/04 09:54:30;;;;;;;0.32;0.17;;;16.80;99.90;;;;;;5014350;28;20018;-77
2023/10/04 09:56:57;;;;;;;3.25;0.35;;;16.90;99.90;;;;;;5013108;28;20175;-77
2023/10/04 09:59:23;;;;;;;2.00;0.32;;;17.20;99.90;;;;;;5014387;28;20026;-77
2023/10/04 10:01:59;;;;;;;3.58;1.00;;;17.30;99.90;;;;;;5013812;28;20036;-78
2023/10/04 10:04:30;;;;;;;1.85;0.73;;;17.30;99.90;;;;;;5014335;28;20034;-77
2023/10/04 10:07:10;;;;;;;3.78;0.75;;;17.70;99.90;;;;;;5012655;28;20356;-77
2023/10/04 10:09:48;;;;;;;3.60;1.73;;;17.60;99.90;;;;;;5014311;28;20053;-77
2023/10/04 10:12:15;;;;;;;5.05;1.55;;;17.20;99.90;;;;;;5014178;28;20493;-76
2023/10/04 10:14:45;;;;;;;11.57;2.85;;;17.00;99.90;;;;;;5014059;28;20048;-76
2023/10/04 10:17:12;;;;;;;1.45;0.80;;;17.00;99.90;;;;;;5013415;28;20121;-76
2023/10/04 10:19:38;;;;;;;0.00;0.00;;;17.10;99.90;;;;;;5014075;28;20108;-76
2023/10/04 10:22:18;;;;;;;3.20;1.17;;;17.30;99.90;;;;;;5012221;28;20383;-76
2023/10/04 10:24:56;;;;;;;0.40;0.40;;;17.30;99.90;;;;;;5013794;28;20458;-76
2023/10/04 10:27:28;;;;;;;3.05;0.50;;;17.20;99.90;;;;;;5029000;28;20082;-76
2023/10/04 10:30:02;;;;;;;3.38;1.25;;;17.20;99.90;;;;;;5013574;28;20045;-76
2023/10/04 10:32:28;;;;;;;6.03;0.95;;;17.20;99.90;;;;;;5013439;28;20033;-76
2023/10/04 10:35:08;;;;;;;1.75;0.75;;;17.30;99.90;;;;;;5013850;28;20022;-76
2023/10/04 10:37:38;;;;;;;0.20;0.20;;;17.40;99.90;;;;;;5013650;28;20037;-76
2023/10/04 10:40:14;;;;;;;0.00;0.00;;;17.60;99.90;;;;;;5013597;28;20034;-76
2023/10/04 10:43:25;;;;;;;0.45;0.45;;;18.00;99.90;;;;;;5013349;28;20038;-76
2023/10/04 10:45:51;;;;;;;0.90;0.38;;;17.80;99.90;;;;;;5011967;28;20034;-76
2023/10/04 10:48:17;;;;;;;0.85;0.43;;;18.00;99.90;;;;;;5028604;28;20028;-76
2023/10/04 10:50:43;;;;;;;0.00;0.00;;;18.20;99.90;;;;;;5013479;28;20034;-76
2023/10/04 10:53:10;;;;;;;3.15;1.08;;;17.80;99.90;;;;;;5027854;28;20022;-76
2023/10/04 10:55:40;;;;;;;2.75;1.88;;;17.60;99.90;;;;;;5013424;28;20041;-76
2023/10/04 10:58:07;;;;;;;3.60;1.27;;;17.60;99.90;;;;;;5013266;28;20044;-76
2023/10/04 11:00:36;;;;;;;9.68;1.25;;;17.80;99.90;;;;;;5013232;28;20109;-76
2023/10/04 11:03:05;;;;;;;0.20;0.20;;;18.00;99.90;;;;;;5012953;28;20018;-76
2023/10/04 11:05:31;;;;;;;5.03;1.15;;;18.00;99.90;;;;;;5013265;28;20088;-76
2023/10/04 11:07:57;;;;;;;5.32;1.17;;;18.30;99.90;;;;;;5013467;28;20394;-76
2023/10/04 11:10:25;;;;;;;0.98;0.85;;;18.40;99.90;;;;;;5028255;28;20068;-76
2023/10/04 11:13:03;;;;;;;0.35;0.28;;;18.10;99.90;;;;;;5013297;28;20025;-76
2023/10/04 11:15:29;;;;;;;3.55;1.33;;;17.70;99.90;;;;;;5012718;28;20022;-76
2023/10/04 11:17:55;;;;;;;5.15;0.73;;;17.70;99.90;;;;;;5013130;28;20034;-75
2023/10/04 11:20:22;;;;;;;8.95;2.17;;;17.60;99.90;;;;;;5012843;28;20017;-76
2023/10/04 11:22:49;;;;;;;0.05;0.05;;;17.50;99.90;;;;;;5013136;28;20018;-77
2023/10/04 11:25:16;;;;;;;3.03;0.40;;;17.60;99.90;;;;;;5012689;28;20057;-77
2023/10/04 11:27:44;;;;;;;1.75;0.10;;;17.80;99.90;;;;;;5013140;28;20470;-77
2023/10/04 11:30:17;;;;;;;3.45;1.05;;;17.70;99.90;;;;;;5011436;28;20029;-77
2023/10/04 11:32:45;;;;;;;0.82;0.65;;;17.30;99.90;;;;;;5003956;28;20045;-76
2023/10/04 11:35:12;;;;;;;4.13;3.42;;;17.50;99.90;;;;;;5006433;28;20034;-77
2023/10/04 11:37:50;;;;;;;0.00;0.00;;;17.60;99.90;;;;;;5012561;28;20026;-77
2023/10/04 11:40:19;;;;;;;0.30;0.30;;;17.60;99.90;;;;;;5012605;28;20537;-77
2023/10/04 11:42:46;;;;;;;0.90;0.50;;;17.30;99.90;;;;;;5012654;28;20100;-77
2023/10/04 11:45:20;;;;;;;3.25;0.73;;;17.60;99.90;;;;;;5012850;28;20076;-77
2023/10/04 11:47:58;;;;;;;0.47;0.45;;;17.50;99.90;;;;;;5012572;28;20462;-77
2023/10/04 11:50:23;;;;;;;2.28;0.82;;;17.60;99.90;;;;;;5011544;28;20042;-77
2023/10/04 11:52:53;;;;;;;3.15;0.95;;;17.60;99.90;;;;;;5012441;28;20368;-77
2023/10/04 11:55:26;;;;;;;2.55;1.15;;;17.60;99.90;;;;;;5012602;28;20034;-76
2023/10/04 11:57:53;;;;;;;0.00;0.00;;;17.70;99.90;;;;;;5012292;28;20021;-77
2023/10/04 12:00:22;;;;;;;0.00;0.00;;;17.70;99.90;;;;;;5011175;28;20033;-77
2023/10/04 12:02:49;;;;;;;0.20;0.20;;;17.70;99.90;;;;;;5006496;28;20121;-76
2023/10/04 12:05:15;;;;;;;0.40;0.40;;;17.60;99.90;;;;;;5015112;28;20096;-76
2023/10/04 12:07:41;;;;;;;1.30;0.70;;;17.40;99.90;;;;;;5016328;28;20060;-76
2023/10/04 12:10:09;;;;;;;0.10;0.10;;;17.50;99.90;;;;;;5016056;28;20073;-76
2023/10/04 12:12:36;;;;;;;0.13;0.13;;;17.50;99.90;;;;;;5016253;28;20049;-77
2023/10/04 12:15:07;;;;;;;1.85;1.00;;;17.70;99.90;;;;;;5016162;28;20038;-77
2023/10/04 12:17:37;;;;;;;4.43;1.15;;;17.50;99.90;;;;;;5016350;28;20020;-76
2023/10/04 12:20:07;;;;;;;2.92;0.98;;;17.30;99.90;;;;;;5016013;28;20138;-77
2023/10/04 12:22:33;;;;;;;4.07;0.13;;;17.40;99.90;;;;;;5016318;28;20034;-76
2023/10/04 12:25:04;;;;;;;0.00;0.00;;;17.50;99.90;;;;;;5016085;28;20026;-77
2023/10/04 12:27:30;;;;;;;6.15;0.55;;;17.80;99.90;;;;;;5016040;28;20061;-76
2023/10/04 12:29:57;;;;;;;2.35;0.47;;;17.80;99.90;;;;;;5015873;28;20518;-77
2023/10/04 12:32:23;;;;;;;0.05;0.05;;;17.80;99.90;;;;;;5015803;28;20105;-78
2023/10/04 12:34:49;;;;;;;0.20;0.20;;;17.90;99.90;;;;;;5015948;28;20030;-77
2023/10/04 12:37:15;;;;;;;0.10;0.10;;;17.50;99.90;;;;;;5014467;28;20032;-76
2023/10/04 12:39:43;;;;;;;0.00;0.00;;;17.60;99.90;;;;;;5014750;28;20034;-77
2023/10/04 12:42:09;;;;;;;0.43;0.43;;;17.90;99.90;;;;;;5015175;28;20061;-76
2023/10/04 12:44:37;;;;;;;7.53;0.32;;;17.90;99.90;;;;;;5015899;28;20467;-77
2023/10/04 12:47:04;;;;;;;4.85;1.27;;;18.00;99.90;;;;;;5014136;28;20034;-76
2023/10/04 12:49:30;;;;;;;2.20;0.43;;;17.90;99.90;;;;;;5015414;28;20038;-76
2023/10/04 12:51:56;;;;;;;0.35;0.15;;;17.80;99.90;;;;;;5015672;28;20018;-76
2023/10/04 12:54:23;;;;;;;0.93;0.85;;;18.10;99.90;;;;;;5015406;28;20037;-76
2023/10/04 12:56:52;;;;;;;0.40;0.40;;;18.00;99.90;;;;;;5015303;28;20109;-76
2023/10/04 12:59:19;;;;;;;3.15;0.88;;;18.10;99.90;;;;;;5015329;28;20091;-77